createdAt,value
2022-12-25T00:01:08.523Z,89.12
2022-12-25T00:04:12.413Z,89.41
2022-12-25T00:07:15.239Z,89.94
2022-12-25T00:10:18.437Z,90.07
2022-12-25T00:13:21.194Z,90.18
2022-12-25T00:16:26.936Z,90.20
2022-12-25T00:19:29.813Z,90.16
2022-12-25T00:22:32.743Z,90.44
2022-12-25T00:25:39.481Z,90.13
2022-12-25T00:28:42.678Z,90.46
2022-12-25T00:31:46.962Z,90.44
2022-12-25T00:34:49.816Z,89.79
2022-12-25T00:37:52.587Z,90.01
2022-12-25T00:40:56.740Z,90.56
2022-12-25T00:44:00.673Z,90.13
2022-12-25T00:47:05.021Z,89.43
2022-12-25T00:50:09.218Z,89.76
2022-12-25T00:53:13.072Z,89.67
2022-12-25T00:56:15.857Z,89.96
2022-12-25T00:59:18.813Z,90.02
2022-12-25T01:02:26.252Z,89.86
2022-12-25T01:05:29.289Z,89.73
2022-12-25T01:08:34.225Z,88.49
2022-12-25T01:11:37.053Z,87.31
2022-12-25T01:14:39.840Z,86.71
2022-12-25T01:17:44.771Z,86.62
2022-12-25T01:20:48.087Z,85.60
2022-12-25T01:23:52.564Z,85.76
2022-12-25T01:26:55.414Z,85.69
2022-12-25T01:29:58.312Z,85.31
2022-12-25T01:33:02.753Z,85.08
2022-12-25T01:36:12.637Z,84.75
2022-12-25T01:39:15.489Z,85.10
2022-12-25T01:42:19.367Z,84.68
2022-12-25T01:45:44.450Z,84.69
2022-12-25T01:48:49.361Z,84.66
2022-12-25T01:51:54.566Z,85.01
2022-12-25T01:55:00.677Z,85.03
2022-12-25T01:58:03.765Z,84.31
2022-12-25T02:01:06.828Z,84.28
2022-12-25T02:04:16.607Z,84.91
2022-12-25T02:07:21.612Z,85.00
2022-12-25T02:10:24.383Z,85.63
2022-12-25T02:13:27.167Z,86.16
2022-12-25T02:16:35.594Z,86.02
2022-12-25T02:20:32.922Z,86.79
2022-12-25T02:24:06.379Z,86.59
2022-12-25T02:27:18.398Z,86.45
2022-12-25T02:30:22.826Z,86.09
2022-12-25T02:33:50.499Z,85.50
2022-12-25T02:37:02.668Z,85.21
2022-12-25T02:40:13.224Z,84.77
2022-12-25T02:43:38.838Z,85.27
2022-12-25T02:47:02.825Z,85.33
2022-12-25T02:50:26.630Z,86.31
2022-12-25T02:53:50.892Z,85.97
2022-12-25T02:57:15.531Z,86.57
2022-12-25T03:00:37.069Z,87.06
2022-12-25T03:04:07.477Z,87.22
2022-12-25T03:07:13.336Z,86.95
2022-12-25T03:10:35.178Z,86.63
2022-12-25T03:13:41.641Z,86.85
2022-12-25T03:16:50.963Z,87.15
2022-12-25T03:20:13.728Z,87.31
2022-12-25T03:23:38.894Z,87.45
2022-12-25T03:26:56.939Z,88.01
2022-12-25T03:30:18.079Z,88.50
2022-12-25T03:33:45.153Z,88.45
2022-12-25T03:37:02.334Z,88.08
2022-12-25T03:40:42.568Z,88.20
2022-12-25T03:44:12.965Z,87.99
2022-12-25T03:47:37.690Z,87.90
2022-12-25T03:51:03.903Z,88.43
2022-12-25T03:54:29.804Z,88.36
2022-12-25T03:57:52.777Z,88.57
2022-12-25T04:01:18.662Z,88.63
2022-12-25T04:04:40.087Z,88.48
2022-12-25T04:08:01.072Z,88.61
2022-12-25T04:11:23.755Z,88.13
2022-12-25T04:14:45.225Z,87.93
2022-12-25T04:18:10.331Z,88.00
2022-12-25T04:21:31.351Z,87.73
2022-12-25T04:24:52.560Z,87.68
2022-12-25T04:28:19.777Z,87.79
2022-12-25T04:31:41.358Z,88.03
2022-12-25T04:35:02.879Z,87.84
2022-12-25T04:38:05.832Z,87.30
2022-12-25T04:41:10.070Z,87.37
2022-12-25T04:44:14.306Z,87.55
2022-12-25T04:47:16.982Z,87.05
2022-12-25T04:50:20.001Z,87.48
2022-12-25T04:53:23.079Z,87.72
2022-12-25T04:56:25.821Z,87.91
2022-12-25T04:59:30.127Z,88.71
2022-12-25T05:02:33.355Z,88.78
2022-12-25T05:05:39.287Z,88.53
2022-12-25T05:08:42.108Z,88.72
2022-12-25T05:11:44.763Z,88.77
2022-12-25T05:14:48.823Z,89.03
2022-12-25T05:17:51.550Z,89.25
2022-12-25T05:20:54.896Z,88.99
2022-12-25T05:23:57.600Z,89.23
2022-12-25T05:27:00.363Z,89.24
2022-12-25T05:30:05.282Z,89.57
2022-12-25T05:33:08.310Z,89.62
2022-12-25T05:36:13.039Z,89.94
2022-12-25T05:39:15.770Z,90.28
2022-12-25T05:42:18.556Z,90.24
2022-12-25T05:45:22.762Z,90.28
2022-12-25T05:48:25.495Z,90.56
2022-12-25T05:51:28.253Z,90.70
2022-12-25T05:54:30.979Z,91.00
2022-12-25T05:57:33.695Z,90.79
2022-12-25T06:00:38.101Z,90.75
2022-12-25T06:03:41.014Z,90.51
2022-12-25T06:06:43.996Z,90.59
2022-12-25T06:09:46.887Z,90.75
2022-12-25T06:12:49.601Z,90.51
2022-12-25T06:15:53.823Z,90.33
2022-12-25T06:18:56.817Z,90.64
2022-12-25T06:21:59.640Z,91.34
2022-12-25T06:25:02.486Z,91.36
2022-12-25T06:28:05.174Z,91.25
2022-12-25T06:31:11.683Z,91.55
2022-12-25T06:34:16.622Z,90.75
2022-12-25T06:37:19.866Z,90.03
2022-12-25T06:40:22.683Z,89.21
2022-12-25T06:43:25.399Z,89.63
2022-12-25T06:46:30.375Z,90.45
2022-12-25T06:49:33.222Z,90.69
2022-12-25T06:52:36.101Z,90.57
2022-12-25T06:55:38.873Z,90.92
2022-12-25T06:58:43.235Z,90.67
2022-12-25T07:01:50.072Z,91.10
2022-12-25T07:04:53.577Z,90.97
2022-12-25T07:07:56.224Z,90.67
2022-12-25T07:10:59.118Z,90.01
2022-12-25T07:14:01.824Z,88.58
2022-12-25T07:17:06.142Z,87.97
2022-12-25T07:20:09.859Z,88.13
2022-12-25T07:23:12.712Z,87.01
2022-12-25T07:26:17.471Z,85.46
2022-12-25T07:29:20.228Z,82.87
2022-12-25T07:32:24.501Z,80.24
2022-12-25T07:35:27.248Z,77.74
2022-12-25T07:38:30.055Z,77.18
2022-12-25T07:41:32.966Z,75.19
2022-12-25T07:44:49.611Z,74.88
2022-12-25T07:47:55.246Z,74.30
2022-12-25T07:51:00.093Z,76.00
2022-12-25T07:54:02.954Z,75.97
2022-12-25T07:57:05.719Z,74.65
2022-12-25T08:00:09.812Z,72.94
2022-12-25T08:03:17.017Z,70.16
2022-12-25T08:06:20.922Z,68.47
2022-12-25T08:09:23.881Z,68.43
2022-12-25T08:12:26.713Z,66.75
2022-12-25T08:15:30.622Z,68.39
2022-12-25T08:18:36.359Z,69.76
2022-12-25T08:21:39.399Z,70.55
2022-12-25T08:24:42.095Z,67.50
2022-12-25T08:27:44.853Z,64.20
2022-12-25T08:30:47.651Z,64.48
2022-12-25T08:33:54.193Z,65.64
2022-12-25T08:36:56.988Z,62.70
2022-12-25T08:39:59.780Z,64.63
2022-12-25T08:43:02.596Z,66.82
2022-12-25T08:46:05.900Z,68.70
2022-12-25T08:49:10.091Z,69.26
2022-12-25T08:52:12.886Z,67.29
2022-12-25T08:55:16.801Z,69.98
2022-12-25T08:58:20.001Z,71.06
2022-12-25T09:01:22.979Z,72.37
2022-12-25T09:04:27.469Z,73.85
2022-12-25T09:07:30.165Z,74.09
2022-12-25T09:10:35.635Z,73.56
2022-12-25T09:13:39.428Z,74.10
2022-12-25T09:16:42.158Z,73.98
2022-12-25T09:19:46.495Z,74.54
2022-12-25T09:22:49.592Z,73.45
2022-12-25T09:25:52.396Z,72.66
2022-12-25T09:28:55.254Z,73.05
2022-12-25T09:31:58.195Z,73.38
2022-12-25T09:35:02.578Z,71.86
2022-12-25T09:38:05.351Z,70.51
2022-12-25T09:41:14.795Z,70.11
2022-12-25T09:44:22.689Z,67.63
2022-12-25T09:47:28.541Z,64.49
2022-12-25T09:50:41.214Z,62.62
2022-12-25T09:53:51.812Z,61.86
2022-12-25T09:56:54.634Z,59.93
2022-12-25T09:59:57.377Z,58.61
2022-12-25T10:03:09.382Z,57.67
2022-12-25T10:06:20.837Z,59.01
2022-12-25T10:09:41.982Z,57.41
2022-12-25T10:12:54.991Z,57.48
2022-12-25T10:16:11.652Z,57.70
2022-12-25T10:19:28.160Z,58.12
2022-12-25T10:22:36.036Z,56.49
2022-12-25T10:25:40.075Z,52.87
2022-12-25T10:28:44.804Z,52.09
2022-12-25T10:31:49.687Z,50.58
2022-12-25T10:34:52.575Z,50.64
2022-12-25T10:38:00.160Z,47.79
2022-12-25T10:41:19.765Z,46.34
2022-12-25T10:44:24.602Z,46.58
2022-12-25T10:47:29.793Z,46.77
2022-12-25T10:50:33.789Z,45.37
2022-12-25T10:53:41.690Z,45.20
2022-12-25T10:56:53.089Z,46.49
2022-12-25T10:59:56.884Z,47.49
2022-12-25T11:03:00.284Z,49.99
2022-12-25T11:06:04.358Z,48.51
2022-12-25T11:09:16.556Z,47.79
2022-12-25T11:12:21.834Z,47.20
2022-12-25T11:15:39.149Z,45.08
2022-12-25T11:18:47.786Z,43.18
2022-12-25T11:21:52.586Z,43.40
2022-12-25T11:24:56.739Z,43.86
2022-12-25T11:28:00.942Z,42.28
2022-12-25T11:31:08.073Z,41.93
2022-12-25T11:34:16.963Z,38.28
2022-12-25T11:37:24.136Z,36.94
2022-12-25T11:40:41.775Z,39.68
2022-12-25T11:43:48.818Z,38.95
2022-12-25T11:46:52.199Z,40.86
2022-12-25T11:50:01.016Z,39.15
2022-12-25T11:53:10.161Z,40.21
2022-12-25T11:56:18.788Z,39.21
2022-12-25T11:59:26.849Z,39.16
2022-12-25T12:02:36.581Z,38.21
2022-12-25T12:05:45.345Z,39.50
2022-12-25T12:08:54.070Z,38.62
2022-12-25T12:12:03.961Z,40.29
2022-12-25T12:15:17.214Z,41.57
2022-12-25T12:18:22.287Z,39.20
2022-12-25T12:21:28.203Z,37.60
2022-12-25T12:24:37.892Z,36.53
2022-12-25T12:27:43.497Z,37.28
2022-12-25T12:30:57.729Z,38.23
2022-12-25T12:34:00.565Z,40.97
2022-12-25T12:37:07.778Z,42.48
2022-12-25T12:40:26.091Z,44.40
2022-12-25T12:43:36.384Z,44.84
2022-12-25T12:46:49.648Z,46.33
2022-12-25T12:49:57.889Z,53.21
2022-12-25T12:53:15.415Z,54.67
2022-12-25T12:56:20.022Z,56.85
2022-12-25T12:59:25.057Z,59.23
2022-12-25T13:03:02.851Z,61.49
2022-12-25T13:06:14.560Z,63.41
2022-12-25T13:09:27.476Z,63.97
2022-12-25T13:12:30.580Z,65.07
2022-12-25T13:15:35.780Z,65.97
2022-12-25T13:18:39.818Z,66.38
2022-12-25T13:21:52.762Z,66.08
2022-12-25T13:24:57.553Z,66.42
2022-12-25T13:28:00.298Z,67.35
2022-12-25T13:31:07.019Z,67.93
2022-12-25T13:34:23.137Z,68.11
2022-12-25T13:37:28.481Z,69.39
2022-12-25T13:40:31.275Z,70.48
2022-12-25T13:43:34.106Z,70.46
2022-12-25T13:46:38.226Z,70.99
2022-12-25T13:49:41.304Z,71.91
2022-12-25T13:52:44.053Z,72.37
2022-12-25T13:55:50.162Z,73.22
2022-12-25T13:58:53.115Z,73.16
2022-12-25T14:01:57.802Z,73.50
2022-12-25T14:05:00.811Z,74.19
2022-12-25T14:08:12.438Z,73.98
2022-12-25T14:11:17.749Z,74.04
2022-12-25T14:14:24.306Z,74.00
2022-12-25T14:17:28.644Z,73.96
2022-12-25T14:20:36.951Z,73.85
2022-12-25T14:23:42.732Z,73.77
2022-12-25T14:26:45.612Z,73.79
2022-12-25T14:29:51.275Z,74.10
2022-12-25T14:32:56.528Z,74.08
2022-12-25T14:35:59.378Z,74.48
2022-12-25T14:39:05.631Z,74.83
2022-12-25T14:42:19.141Z,76.40
2022-12-25T14:45:26.929Z,77.27
2022-12-25T14:48:33.101Z,77.87
2022-12-25T14:51:39.174Z,78.11
2022-12-25T14:54:46.109Z,77.92
2022-12-25T14:57:51.806Z,77.86
2022-12-25T15:00:56.512Z,77.74
2022-12-25T15:04:15.708Z,78.05
2022-12-25T15:07:29.974Z,78.99
2022-12-25T15:13:56.544Z,79.34
2022-12-25T15:17:01.316Z,79.42
2022-12-25T15:20:08.867Z,79.48
2022-12-25T15:23:21.905Z,79.39
2022-12-25T15:26:25.470Z,80.08
2022-12-25T15:30:00.217Z,80.93
2022-12-25T15:32:51.302Z,81.66
2022-12-25T15:35:55.396Z,81.61
2022-12-25T15:38:58.170Z,82.40
2022-12-25T15:42:12.862Z,82.92
2022-12-25T15:45:20.499Z,82.91
2022-12-25T15:48:23.385Z,83.51
2022-12-25T15:51:27.520Z,83.91
2022-12-25T15:54:31.147Z,85.00
2022-12-25T15:57:35.180Z,85.04
2022-12-25T16:00:38.078Z,85.04
2022-12-25T16:03:42.212Z,85.38
2022-12-25T16:06:46.470Z,85.96
2022-12-25T16:09:49.529Z,85.91
2022-12-25T16:12:53.284Z,86.33
2022-12-25T16:15:56.163Z,87.38
2022-12-25T16:18:59.252Z,88.31
2022-12-25T16:22:11.763Z,89.46
2022-12-25T16:25:16.937Z,89.66
2022-12-25T16:28:19.743Z,89.59
2022-12-25T16:31:22.519Z,89.85
2022-12-25T16:34:25.249Z,90.06
2022-12-25T16:37:29.476Z,90.29
2022-12-25T16:40:32.517Z,90.31
2022-12-25T16:43:35.525Z,90.23
2022-12-25T16:46:40.298Z,90.84
2022-12-25T16:49:43.468Z,90.69
2022-12-25T16:52:47.572Z,91.02
2022-12-25T16:55:50.258Z,91.12
2022-12-25T16:58:53.000Z,91.17
2022-12-25T17:01:55.968Z,91.39
2022-12-25T17:05:00.452Z,91.40
2022-12-25T17:08:05.151Z,91.46
2022-12-25T17:11:07.990Z,91.72
2022-12-25T17:14:11.245Z,91.90
2022-12-25T17:17:14.379Z,91.88
2022-12-25T17:20:17.131Z,91.82
2022-12-25T17:23:21.424Z,91.45
2022-12-25T17:26:24.779Z,91.29
2022-12-25T17:29:27.478Z,91.39
2022-12-25T17:32:30.236Z,91.73
2022-12-25T17:35:35.699Z,92.01
2022-12-25T17:38:40.371Z,91.55
2022-12-25T17:41:43.053Z,91.57
2022-12-25T17:44:46.341Z,91.73
2022-12-25T17:47:49.027Z,91.31
2022-12-25T17:50:51.902Z,91.29
2022-12-25T17:53:58.210Z,91.36
2022-12-25T17:57:01.031Z,91.57
2022-12-25T18:00:04.603Z,91.46
2022-12-25T18:03:11.480Z,91.51
2022-12-25T18:06:17.237Z,91.18
2022-12-25T18:09:21.664Z,90.96
2022-12-25T18:12:24.338Z,90.61
2022-12-25T18:15:27.056Z,90.16
2022-12-25T18:18:29.960Z,90.20
2022-12-25T18:21:32.748Z,89.88
2022-12-25T18:24:37.447Z,89.49
2022-12-25T18:27:40.152Z,89.83
2022-12-25T18:30:45.297Z,89.48
2022-12-25T18:33:48.911Z,89.72
2022-12-25T18:36:51.595Z,88.99
2022-12-25T18:39:55.819Z,88.78
2022-12-25T18:43:03.175Z,88.85
2022-12-25T18:46:06.606Z,88.01
2022-12-25T18:49:11.024Z,88.13
2022-12-25T18:52:49.867Z,87.96
2022-12-25T18:55:40.329Z,87.48
2022-12-25T18:58:43.553Z,87.37
2022-12-25T19:01:46.660Z,87.50
2022-12-25T19:04:49.397Z,87.42
2022-12-25T19:07:52.261Z,87.60
2022-12-25T19:10:56.362Z,88.17
2022-12-25T19:13:59.100Z,88.70
2022-12-25T19:17:02.083Z,87.60
2022-12-25T19:20:06.255Z,87.42
2022-12-25T19:23:09.209Z,87.24
2022-12-25T19:26:13.375Z,87.78
2022-12-25T19:29:16.954Z,87.84
2022-12-25T19:32:19.816Z,88.89
2022-12-25T19:35:22.809Z,89.12
2022-12-25T19:38:25.791Z,89.58
2022-12-25T19:41:30.251Z,89.11
2022-12-25T19:44:33.276Z,89.05
2022-12-25T19:47:35.970Z,89.42
2022-12-25T19:50:38.741Z,89.51
2022-12-25T19:53:41.619Z,88.87
2022-12-25T19:56:45.909Z,89.17
2022-12-25T19:59:49.684Z,89.28
2022-12-25T20:02:52.586Z,88.92
2022-12-25T20:05:56.597Z,88.49
2022-12-25T20:09:03.834Z,88.57
2022-12-25T20:12:10.373Z,89.29
2022-12-25T20:15:13.780Z,88.81
2022-12-25T20:18:17.385Z,89.06
2022-12-25T20:21:22.639Z,88.93
2022-12-25T20:24:25.414Z,88.91
2022-12-25T20:27:29.508Z,89.35
2022-12-25T20:30:32.301Z,89.19
2022-12-25T20:33:36.299Z,89.56
2022-12-25T20:36:39.241Z,89.98
2022-12-25T20:39:42.139Z,89.96
2022-12-25T20:42:46.342Z,89.86
2022-12-25T20:45:51.646Z,89.31
2022-12-25T20:48:54.486Z,89.63
2022-12-25T20:52:03.018Z,89.11
2022-12-25T20:55:08.344Z,88.78
2022-12-25T20:58:12.596Z,88.94
2022-12-25T21:01:17.651Z,89.39
2022-12-25T21:04:20.469Z,89.33
2022-12-25T21:07:23.109Z,89.19
2022-12-25T21:10:25.742Z,89.08
2022-12-25T21:13:32.380Z,89.34
2022-12-25T21:16:35.485Z,89.29
2022-12-25T21:19:38.257Z,89.42
2022-12-25T21:22:41.326Z,89.11
2022-12-25T21:25:44.202Z,89.36
2022-12-25T21:28:51.465Z,89.49
2022-12-25T21:32:13.509Z,89.32
2022-12-25T21:35:16.343Z,89.24
2022-12-25T21:38:19.016Z,89.59
2022-12-25T21:41:21.955Z,89.37
2022-12-25T21:44:26.027Z,90.00
2022-12-25T21:48:00.353Z,90.09
2022-12-25T21:51:10.596Z,89.95
2022-12-25T21:54:14.818Z,89.95
2022-12-25T21:57:17.550Z,89.85
2022-12-25T22:00:29.220Z,90.10
2022-12-25T22:03:32.209Z,89.90
2022-12-25T22:06:54.512Z,89.93
2022-12-25T22:09:57.237Z,90.22
2022-12-25T22:13:19.478Z,90.04
2022-12-25T22:16:42.458Z,90.23
2022-12-25T22:19:45.419Z,90.24
2022-12-25T22:22:48.811Z,89.81
2022-12-25T22:25:51.498Z,89.56
2022-12-25T22:28:54.322Z,89.68
2022-12-25T22:31:58.651Z,88.81
2022-12-25T22:35:02.475Z,89.28
2022-12-25T22:38:05.337Z,88.84
2022-12-25T22:41:08.179Z,88.72
2022-12-25T22:44:18.623Z,88.64
2022-12-25T22:47:24.230Z,88.23
2022-12-25T22:50:27.206Z,88.06
2022-12-25T22:53:29.950Z,88.19
2022-12-25T22:56:32.631Z,88.30
2022-12-25T22:59:35.580Z,87.56
2022-12-25T23:02:40.065Z,86.90
2022-12-25T23:05:42.989Z,86.98
2022-12-25T23:08:45.717Z,87.37
2022-12-25T23:11:48.606Z,87.22
2022-12-25T23:14:51.453Z,86.27
2022-12-25T23:18:14.340Z,86.06
2022-12-25T23:21:36.689Z,86.36
2022-12-25T23:24:58.975Z,86.19
2022-12-25T23:28:01.666Z,86.11
2022-12-25T23:31:04.647Z,85.74
2022-12-25T23:34:09.844Z,86.03
2022-12-25T23:37:12.636Z,85.51
2022-12-25T23:40:15.669Z,85.36
2022-12-25T23:43:18.597Z,85.29
2022-12-25T23:46:21.443Z,85.40
2022-12-25T23:49:26.345Z,85.16
2022-12-25T23:52:29.055Z,85.31
2022-12-25T23:55:33.782Z,85.52
2022-12-25T23:58:37.453Z,85.56
